Orsa, Belarus
Current Conditions -  °F | °C
As of 3:00 PM on Saturday 22 Nov 2014 (Local Time) from UMII Reporting Station
Broken Clouds Broken Clouds  
Wind Chill: 24°   Ceiling: 30000
Heat Index: 30°   Visibility: 4mi
Dew Point: 16°   Wind: 7mph
Humidity: 55%   Direction: 140°SE
Pressure: 30.36"   Gusts: NA
Location:  55°N, 30.42°E
Report Text: UMII 221300Z 14003MPS P6000 FEW033 BKN300 M01/M09 Q1028 NOSIG
Loading
Personal Weather Stations






























Interactive Weather Map New forecast layout! Learn more

10-Day Weather Forecast

Advertisements
Track Severe Weather on mobile